Time;durP1;ratioP1;P1;durP2;ratioP2;P2;SDS_P1;SDS_P2;PMS_P1;PMS_P2;Temp;Humidity;BMP_temperature;BMP_pressure;BME280_temperature;BME280_humidity;BME280_pressure;Samples;Min_cycle;Max_cycle;Signal;HPM_P1;HPM_P2
2024/01/27 00:01:57;;;;;;;3.20;2.90;;;;;;;8.13;50.91;101746.77;107127;1254;25474;-53
2024/01/27 00:04:24;;;;;;;2.70;2.40;;;;;;;8.13;51.09;101748.67;107095;1257;25365;-53
2024/01/27 00:06:51;;;;;;;4.00;2.80;;;;;;;8.13;51.08;101748.16;106335;1251;1003410;-53
2024/01/27 00:09:18;;;;;;;3.40;2.90;;;;;;;8.14;51.11;101748.85;107118;1254;25319;-53
2024/01/27 00:11:46;;;;;;;3.20;2.70;;;;;;;8.16;51.03;101747.14;107061;1257;25346;-53
2024/01/27 00:14:13;;;;;;;2.80;2.50;;;;;;;8.16;50.95;101742.46;107077;1252;25500;-54
2024/01/27 00:16:40;;;;;;;2.50;2.30;;;;;;;8.17;51.03;101733.65;107118;1255;25344;-53
2024/01/27 00:19:06;;;;;;;3.50;2.60;;;;;;;8.19;50.95;101733.66;107113;1263;25497;-53
2024/01/27 00:21:34;;;;;;;3.10;2.70;;;;;;;8.21;51.09;101731.77;107144;1254;25353;-53
2024/01/27 00:24:03;;;;;;;2.50;2.20;;;;;;;8.25;50.97;101740.77;107083;1257;25884;-54
2024/01/27 00:26:30;;;;;;;2.60;2.40;;;;;;;8.28;51.04;101742.88;107092;1254;24363;-53
2024/01/27 00:28:57;;;;;;;3.90;2.80;;;;;;;8.32;50.90;101743.77;107207;1257;25320;-53
2024/01/27 00:31:24;;;;;;;3.60;2.70;;;;;;;8.36;50.91;101742.91;107109;1250;25328;-52
2024/01/27 00:33:52;;;;;;;2.90;2.60;;;;;;;8.41;50.60;101745.53;107057;1251;25395;-52
2024/01/27 00:36:20;;;;;;;2.70;2.50;;;;;;;8.44;50.60;101747.27;107126;1256;25337;-54
2024/01/27 00:38:47;;;;;;;3.80;2.90;;;;;;;8.48;50.53;101742.43;107200;1254;25460;-54
2024/01/27 00:41:17;;;;;;;3.30;3.00;;;;;;;8.50;50.37;101741.57;107071;1254;25328;-53
2024/01/27 00:43:45;;;;;;;3.60;3.10;;;;;;;8.50;50.37;101741.39;106358;1254;1003678;-54
2024/01/27 00:46:14;;;;;;;6.00;3.10;;;;;;;8.48;50.18;101733.44;106907;1269;25375;-53
2024/01/27 00:48:41;;;;;;;3.10;2.80;;;;;;;8.43;50.02;101732.73;106209;1268;1003446;-53
2024/01/27 00:51:08;;;;;;;3.00;2.70;;;;;;;8.38;50.17;101730.98;106341;1254;1002478;-53
2024/01/27 00:53:36;;;;;;;3.20;2.80;;;;;;;8.36;50.30;101731.15;107112;1256;25475;-53
2024/01/27 00:56:03;;;;;;;3.40;3.10;;;;;;;8.32;50.30;101731.66;107208;1254;25352;-51
2024/01/27 00:58:32;;;;;;;3.70;3.00;;;;;;;8.33;50.25;101736.50;107034;1257;25401;-53
2024/01/27 01:00:59;;;;;;;2.70;2.50;;;;;;;8.32;50.33;101737.20;107156;1260;22637;-53
2024/01/27 01:03:26;;;;;;;5.10;3.00;;;;;;;8.30;50.48;101734.94;106860;1269;25303;-53
2024/01/27 01:05:54;;;;;;;3.90;3.10;;;;;;;8.28;50.51;101733.02;107062;1254;25346;-53
2024/01/27 01:08:21;;;;;;;3.50;3.20;;;;;;;8.25;50.43;101737.48;106837;1257;25408;-53
2024/01/27 01:10:48;;;;;;;2.80;2.50;;;;;;;8.22;50.58;101736.95;106875;1259;25349;-53
2024/01/27 01:13:16;;;;;;;3.60;3.00;;;;;;;8.22;50.65;101736.27;107111;1255;25676;-52
2024/01/27 01:15:43;;;;;;;3.60;2.80;;;;;;;8.22;50.75;101739.38;106962;1254;25328;-52
2024/01/27 01:18:10;;;;;;;4.80;3.30;;;;;;;8.25;50.83;101738.36;106173;1254;1002887;-52
2024/01/27 01:20:37;;;;;;;3.30;3.00;;;;;;;8.28;50.83;101739.77;106993;1257;25353;-54
2024/01/27 01:23:05;;;;;;;2.80;2.60;;;;;;;8.32;50.78;101740.14;106112;1257;1003032;-54
2024/01/27 01:25:32;;;;;;;3.10;2.80;;;;;;;8.38;50.87;101742.74;106919;1257;23864;-52
2024/01/27 01:27:59;;;;;;;3.80;3.50;;;;;;;8.45;50.74;101743.80;106277;1254;1003162;-54
2024/01/27 01:30:26;;;;;;;4.70;3.30;;;;;;;8.53;50.50;101741.23;107104;1257;25328;-53
2024/01/27 01:32:53;;;;;;;3.80;3.40;;;;;;;8.56;50.12;101741.92;107202;1263;25319;-53
2024/01/27 01:35:22;;;;;;;3.40;3.10;;;;;;;8.56;50.07;101742.27;106934;1274;23872;-53
2024/01/27 01:37:50;;;;;;;3.90;3.40;;;;;;;8.52;50.00;101744.52;107076;1255;22523;-53
2024/01/27 01:40:17;;;;;;;3.90;3.30;;;;;;;8.51;50.10;101743.30;107109;1254;25349;-53
2024/01/27 01:42:50;;;;;;;3.70;3.30;;;;;;;8.49;50.05;101738.80;107067;1257;23162;-53
2024/01/27 01:45:17;;;;;;;4.00;3.60;;;;;;;8.47;50.17;101733.09;107140;1255;25278;-54
2024/01/27 01:47:45;;;;;;;4.90;3.90;;;;;;;8.47;50.04;101727.55;106928;1264;25402;-53
2024/01/27 01:50:12;;;;;;;4.20;3.30;;;;;;;8.47;50.10;101724.45;106908;1272;25268;-53
2024/01/27 01:52:39;;;;;;;5.60;4.00;;;;;;;8.47;50.09;101720.98;106370;1269;1003430;-53
2024/01/27 01:55:07;;;;;;;4.00;3.60;;;;;;;8.46;50.30;101715.27;106867;1259;25347;-53
2024/01/27 01:57:33;;;;;;;4.20;3.50;;;;;;;8.47;50.14;101713.90;106737;1272;25398;-53
2024/01/27 02:00:02;;;;;;;4.30;3.80;;;;;;;8.47;50.07;101711.65;106973;1266;24355;-53
2024/01/27 02:02:38;;;;;;;3.50;3.20;;;;;;;8.43;50.21;101713.20;106167;1262;1003591;-53
2024/01/27 02:05:06;;;;;;;5.00;3.60;;;;;;;8.40;50.28;101710.08;106987;1257;25430;-53
2024/01/27 02:07:33;;;;;;;3.90;3.50;;;;;;;8.38;50.34;101709.38;107015;1253;24293;-53
2024/01/27 02:10:00;;;;;;;3.80;3.50;;;;;;;8.35;50.48;101713.34;106358;1256;1003578;-53
2024/01/27 02:12:27;;;;;;;5.90;3.30;;;;;;;8.33;50.37;101717.83;106928;1257;25474;-53
2024/01/27 02:14:54;;;;;;;4.70;3.80;;;;;;;8.30;50.61;101717.82;106008;1270;1003319;-53
2024/01/27 02:17:21;;;;;;;4.10;3.70;;;;;;;8.29;50.57;101716.09;107045;1254;25539;-53
2024/01/27 02:19:48;;;;;;;4.60;3.90;;;;;;;8.30;50.62;101721.11;106945;1269;25274;-53
2024/01/27 02:22:15;;;;;;;4.70;4.10;;;;;;;8.28;50.71;101714.87;106961;1256;25520;-53
2024/01/27 02:24:43;;;;;;;4.10;3.70;;;;;;;8.25;50.79;101719.70;106229;1257;1003632;-53
2024/01/27 02:27:10;;;;;;;3.90;3.40;;;;;;;8.24;50.90;101718.66;107114;1265;22545;-53
2024/01/27 02:29:37;;;;;;;4.30;3.90;;;;;;;8.27;50.87;101716.60;106874;1266;25381;-53
2024/01/27 02:32:05;;;;;;;4.00;3.60;;;;;;;8.30;50.75;101711.09;106901;1266;23320;-53
2024/01/27 02:34:32;;;;;;;5.00;3.70;;;;;;;8.33;50.70;101710.57;107084;1254;25480;-53
2024/01/27 02:37:00;;;;;;;4.40;4.00;;;;;;;8.30;50.47;101707.11;106894;1274;25331;-53
2024/01/27 02:39:27;;;;;;;4.50;3.90;;;;;;;8.25;50.46;101703.62;107109;1263;25478;-53
2024/01/27 02:41:54;;;;;;;4.40;4.00;;;;;;;8.18;50.56;101709.47;107135;1255;25449;-53
2024/01/27 02:44:21;;;;;;;6.80;3.90;;;;;;;8.13;50.76;101707.38;107181;1254;25407;-53
2024/01/27 02:46:48;;;;;;;4.40;3.90;;;;;;;8.12;50.94;101702.17;106352;1254;1003173;-53
2024/01/27 02:49:16;;;;;;;5.30;4.00;;;;;;;8.13;50.86;101704.96;106857;1267;25340;-53
2024/01/27 02:51:44;;;;;;;5.40;4.30;;;;;;;8.15;50.81;101703.59;107038;1256;25356;-53
2024/01/27 02:54:11;;;;;;;6.40;4.30;;;;;;;8.18;50.92;101703.23;107104;1254;25356;-53
2024/01/27 02:56:38;;;;;;;5.70;4.70;;;;;;;8.22;50.80;101703.09;106819;1257;22530;-52
2024/01/27 02:59:05;;;;;;;5.30;4.50;;;;;;;8.27;50.79;101698.96;107121;1254;25318;-53
2024/01/27 03:01:32;;;;;;;4.70;4.00;;;;;;;8.32;50.77;101699.84;106352;1254;1002928;-53
2024/01/27 03:03:59;;;;;;;5.70;4.30;;;;;;;8.32;50.48;101702.27;106292;1257;1003398;-54
2024/01/27 03:06:26;;;;;;;4.30;3.90;;;;;;;8.31;50.67;101701.91;107084;1267;22647;-53
2024/01/27 03:08:53;;;;;;;4.20;3.80;;;;;;;8.30;50.48;101700.53;107167;1263;25440;-53
2024/01/27 03:11:21;;;;;;;4.70;4.30;;;;;;;8.28;50.26;101698.11;106383;1256;1003703;-53
2024/01/27 03:13:49;;;;;;;4.50;3.50;;;;;;;8.23;50.55;101699.46;106790;1260;25328;-53
2024/01/27 03:16:18;;;;;;;4.70;3.80;;;;;;;8.25;50.62;101703.45;107104;1254;25434;-53
2024/01/27 03:18:45;;;;;;;4.80;4.20;;;;;;;8.28;50.55;101707.61;107174;1257;25350;-53
2024/01/27 03:21:12;;;;;;;4.50;4.10;;;;;;;8.33;50.64;101705.91;107128;1250;25443;-53
2024/01/27 03:23:39;;;;;;;4.40;4.00;;;;;;;8.40;50.64;101702.81;107145;1273;25318;-53
2024/01/27 03:26:07;;;;;;;4.40;3.60;;;;;;;8.49;50.47;101706.46;107248;1257;25376;-53
2024/01/27 03:28:34;;;;;;;4.50;3.80;;;;;;;8.55;50.24;101711.48;106910;1270;25386;-52
2024/01/27 03:31:01;;;;;;;4.20;3.80;;;;;;;8.61;50.19;101714.96;107074;1254;25322;-53
2024/01/27 03:33:31;;;;;;;5.00;3.60;;;;;;;8.65;50.11;101715.83;107079;1263;25356;-53
2024/01/27 03:35:58;;;;;;;4.10;3.70;;;;;;;8.66;50.04;101714.95;106320;1263;1003003;-53
2024/01/27 03:38:26;;;;;;;4.40;3.80;;;;;;;8.67;50.05;101714.27;107231;1257;25433;-53
2024/01/27 03:40:53;;;;;;;5.60;4.50;;;;;;;8.70;50.10;101715.31;107187;1266;25112;-53
2024/01/27 03:43:21;;;;;;;4.90;4.40;;;;;;;8.74;49.94;101717.39;107185;1254;25481;-53
2024/01/27 03:45:48;;;;;;;5.50;3.90;;;;;;;8.78;49.88;101713.41;107073;1254;25356;-53
2024/01/27 03:48:15;;;;;;;4.30;3.80;;;;;;;8.80;49.89;101713.77;106359;1255;1003119;-53
2024/01/27 03:50:42;;;;;;;5.50;4.50;;;;;;;8.83;49.78;101715.15;106868;1259;25468;-53
2024/01/27 03:53:09;;;;;;;4.80;3.60;;;;;;;8.82;49.73;101713.60;106832;1259;25379;-53
2024/01/27 03:55:36;;;;;;;4.20;3.40;;;;;;;8.83;49.65;101713.77;107167;1254;25402;-53
2024/01/27 03:58:03;;;;;;;4.30;3.90;;;;;;;8.82;49.59;101711.00;107036;1258;25332;-53
2024/01/27 04:00:32;;;;;;;4.90;3.90;;;;;;;8.83;49.57;101703.05;107164;1257;25356;-53
2024/01/27 04:03:00;;;;;;;4.20;3.80;;;;;;;8.83;49.51;101702.35;107118;1262;22523;-53
2024/01/27 04:05:31;;;;;;;3.70;3.40;;;;;;;8.85;49.55;101700.45;107166;1257;25404;-53
2024/01/27 04:07:58;;;;;;;3.80;3.30;;;;;;;8.85;49.39;101702.70;107098;1257;25356;-53
2024/01/27 04:10:25;;;;;;;4.00;3.60;;;;;;;8.85;49.49;101706.34;105756;1264;1003515;-53
2024/01/27 04:12:51;;;;;;;4.40;4.00;;;;;;;8.84;49.49;101712.91;106381;1251;1002989;-53
2024/01/27 04:15:19;;;;;;;4.20;3.90;;;;;;;8.83;49.53;101716.70;107137;1256;25312;-53
2024/01/27 04:17:46;;;;;;;4.40;4.00;;;;;;;8.82;49.42;101716.36;106347;1257;1003690;-53
2024/01/27 04:20:13;;;;;;;5.90;4.60;;;;;;;8.83;49.49;101714.64;106850;1266;25331;-53
2024/01/27 04:22:40;;;;;;;4.50;4.10;;;;;;;8.83;49.45;101721.39;106470;1257;1002993;-53
2024/01/27 04:25:08;;;;;;;4.90;4.10;;;;;;;8.86;49.40;101721.91;107161;1263;25356;-53
2024/01/27 04:27:42;;;;;;;4.60;4.00;;;;;;;8.88;49.40;101722.42;107140;1255;25875;-53
2024/01/27 04:30:11;;;;;;;4.30;3.90;;;;;;;8.90;49.25;101723.13;107055;1256;23455;-53
2024/01/27 04:32:38;;;;;;;4.40;4.00;;;;;;;8.90;49.20;101725.37;107144;1263;22665;-53
2024/01/27 04:35:09;;;;;;;4.40;3.90;;;;;;;8.88;49.14;101728.48;107086;1257;25340;-53
2024/01/27 04:37:36;;;;;;;4.70;4.20;;;;;;;8.88;49.04;101732.29;107130;1254;25346;-53
2024/01/27 04:40:08;;;;;;;4.20;3.60;;;;;;;8.87;49.27;101735.23;106368;1254;1002996;-52
2024/01/27 04:42:35;;;;;;;;;;;;;;;8.87;49.29;101738.17;106362;1254;1002935;-52
2024/01/27 04:45:02;;;;;;;4.30;3.90;;;;;;;8.88;49.42;101739.73;106883;1260;25411;-54
2024/01/27 04:47:30;;;;;;;4.30;3.90;;;;;;;8.87;49.30;101737.83;107191;1263;25267;-54
2024/01/27 04:49:57;;;;;;;4.60;4.10;;;;;;;8.86;49.22;101741.28;106888;1258;22520;-54
2024/01/27 04:52:25;;;;;;;5.00;4.50;;;;;;;8.85;49.32;101744.75;107108;1264;25360;-53
2024/01/27 04:54:52;;;;;;;4.40;4.00;;;;;;;8.84;49.31;101752.18;107049;1257;22523;-54
2024/01/27 04:57:19;;;;;;;5.00;4.50;;;;;;;8.83;49.36;101753.74;106282;1254;1003090;-52
2024/01/27 04:59:46;;;;;;;4.50;4.10;;;;;;;8.83;49.37;101752.00;107119;1257;25385;-54
2024/01/27 05:02:13;;;;;;;4.30;3.90;;;;;;;8.84;49.40;101752.53;107141;1263;25446;-53
2024/01/27 05:04:40;;;;;;;4.80;4.30;;;;;;;8.85;49.44;101753.23;107112;1258;25478;-53
2024/01/27 05:07:07;;;;;;;4.80;4.20;;;;;;;8.87;49.35;101750.98;107149;1254;25444;-53
2024/01/27 05:09:35;;;;;;;4.70;4.20;;;;;;;8.87;49.45;101757.38;106432;1257;1003571;-53
2024/01/27 05:12:03;;;;;;;4.80;4.30;;;;;;;8.86;49.41;101762.56;107146;1254;25337;-54
2024/01/27 05:14:30;;;;;;;4.40;4.00;;;;;;;8.85;49.39;101762.22;106956;1260;24339;-53
2024/01/27 05:16:57;;;;;;;4.50;4.10;;;;;;;8.83;49.32;101762.90;107168;1254;25404;-53
2024/01/27 05:19:24;;;;;;;4.90;4.40;;;;;;;8.82;49.38;101761.54;107125;1254;25449;-54
2024/01/27 05:21:52;;;;;;;5.90;4.30;;;;;;;8.80;49.39;101760.30;107230;1251;22528;-53
2024/01/27 05:24:19;;;;;;;5.10;4.40;;;;;;;8.80;49.49;101762.38;106369;1254;1003496;-53
2024/01/27 05:26:46;;;;;;;4.90;4.40;;;;;;;8.79;49.41;101764.45;106918;1259;25477;-53
2024/01/27 05:29:14;;;;;;;5.10;4.30;;;;;;;8.79;49.48;101770.16;106180;1254;1003020;-53
2024/01/27 05:31:43;;;;;;;4.20;3.80;;;;;;;8.78;49.40;101768.09;107037;1263;25477;-53
2024/01/27 05:34:11;;;;;;;4.50;3.90;;;;;;;8.76;49.40;101766.86;106888;1260;25423;-53
2024/01/27 05:36:38;;;;;;;5.20;4.70;;;;;;;8.74;49.39;101762.38;107137;1263;25277;-53
2024/01/27 05:39:06;;;;;;;5.20;4.70;;;;;;;8.72;49.36;101763.74;106962;1266;25481;-53
2024/01/27 05:41:33;;;;;;;4.60;4.20;;;;;;;8.71;49.39;101766.16;107037;1266;25331;-53
2024/01/27 05:44:00;;;;;;;5.20;4.70;;;;;;;8.71;49.47;101767.73;106366;1257;1002924;-52
2024/01/27 05:46:27;;;;;;;4.50;4.10;;;;;;;8.71;49.43;101767.91;107176;1263;25356;-52
2024/01/27 05:48:57;;;;;;;5.50;4.70;;;;;;;8.72;49.32;101766.69;107118;1254;25356;-53
2024/01/27 05:51:25;;;;;;;6.00;4.30;;;;;;;8.72;49.26;101767.73;106862;1259;25303;-53
2024/01/27 05:53:52;;;;;;;4.70;4.20;;;;;;;8.71;49.28;101768.06;107004;1257;25612;-53
2024/01/27 05:56:22;;;;;;;5.20;4.70;;;;;;;8.70;49.39;101774.30;107109;1266;25309;-53
2024/01/27 05:58:48;;;;;;;6.70;4.50;;;;;;;8.69;49.36;101774.13;106391;1261;1003536;-53
2024/01/27 06:01:17;;;;;;;5.20;4.60;;;;;;;8.70;49.41;101775.68;107080;1266;25478;-53
2024/01/27 06:03:44;;;;;;;4.60;4.20;;;;;;;8.72;49.48;101772.40;106897;1267;25347;-53
2024/01/27 06:06:12;;;;;;;4.40;3.80;;;;;;;8.76;49.39;101770.50;107039;1257;24204;-53
2024/01/27 06:08:41;;;;;;;4.70;4.20;;;;;;;8.77;49.26;101773.27;106432;1257;1003484;-53
2024/01/27 06:11:07;;;;;;;5.00;4.40;;;;;;;8.78;49.24;101770.51;107172;1255;25356;-53
2024/01/27 06:13:40;;;;;;;4.30;3.90;;;;;;;8.78;49.10;101770.85;107099;1257;22582;-53
2024/01/27 06:16:11;;;;;;;5.20;4.50;;;;;;;8.78;49.21;101768.26;107196;1260;25302;-53
2024/01/27 06:18:39;;;;;;;5.50;4.60;;;;;;;8.79;49.17;101767.22;107158;1256;25478;-53
2024/01/27 06:21:07;;;;;;;6.20;4.70;;;;;;;8.80;49.16;101767.92;106906;1266;22524;-52
2024/01/27 06:23:34;;;;;;;4.50;4.10;;;;;;;8.83;49.17;101761.36;107052;1254;25790;-53
2024/01/27 06:26:07;;;;;;;4.60;4.20;;;;;;;8.86;49.15;101757.20;107263;1257;25331;-54
2024/01/27 06:28:35;;;;;;;4.30;3.70;;;;;;;8.90;49.01;101757.38;106940;1270;25356;-53
2024/01/27 06:31:03;;;;;;;5.10;4.40;;;;;;;8.91;48.85;101754.79;107142;1257;25408;-52
2024/01/27 06:33:31;;;;;;;4.70;4.30;;;;;;;8.88;48.55;101750.11;107187;1256;24230;-53
2024/01/27 06:35:58;;;;;;;5.80;5.10;;;;;;;8.82;48.62;101745.61;106345;1257;1003571;-53
2024/01/27 06:38:26;;;;;;;8.50;4.70;;;;;;;8.73;48.71;101747.83;106848;1267;25347;-53
2024/01/27 06:40:54;;;;;;;4.90;4.30;;;;;;;8.69;48.96;101747.66;106844;1264;25465;-53
2024/01/27 06:43:21;;;;;;;4.90;4.40;;;;;;;8.68;49.15;101744.89;107199;1254;24185;-52
2024/01/27 06:45:49;;;;;;;6.10;4.70;;;;;;;8.72;49.37;101750.44;107078;1251;25477;-53
2024/01/27 06:48:16;;;;;;;5.00;4.50;;;;;;;8.76;49.21;101745.93;107114;1256;25226;-53
2024/01/27 06:50:43;;;;;;;5.30;4.60;;;;;;;8.80;49.33;101753.04;107061;1257;25405;-53
2024/01/27 06:53:10;;;;;;;5.20;4.70;;;;;;;8.85;49.25;101751.33;107048;1255;25331;-53
2024/01/27 06:55:37;;;;;;;5.20;4.70;;;;;;;8.91;49.08;101753.05;107126;1256;25475;-53
2024/01/27 06:58:09;;;;;;;5.20;4.70;;;;;;;8.97;48.89;101751.84;106883;1267;25346;-53
2024/01/27 07:00:36;;;;;;;5.40;4.80;;;;;;;9.00;48.51;101758.61;107057;1257;25401;-52
2024/01/27 07:03:04;;;;;;;5.80;5.30;;;;;;;8.99;48.36;101756.35;107144;1257;25347;-52
2024/01/27 07:05:34;;;;;;;5.80;4.90;;;;;;;8.96;48.22;101759.27;107066;1257;25337;-52
2024/01/27 07:08:02;;;;;;;6.30;5.40;;;;;;;8.96;48.35;101761.02;107118;1256;25363;-52
2024/01/27 07:10:29;;;;;;;5.90;5.20;;;;;;;9.00;48.40;101763.27;107142;1254;25486;-53
2024/01/27 07:12:56;;;;;;;5.80;5.20;;;;;;;9.01;48.20;101770.02;106391;1263;1003678;-53
2024/01/27 07:15:23;;;;;;;5.70;4.90;;;;;;;9.03;48.11;101777.46;107173;1257;25331;-52
2024/01/27 07:17:51;;;;;;;6.30;5.10;;;;;;;9.04;47.80;101777.46;106044;1267;1003750;-52
2024/01/27 07:20:18;;;;;;;6.30;5.70;;;;;;;9.07;47.86;101776.95;107107;1263;25312;-52
2024/01/27 07:22:45;;;;;;;8.70;5.00;;;;;;;9.06;47.53;101775.56;106874;1262;25384;-52
2024/01/27 07:25:13;;;;;;;6.70;5.40;;;;;;;9.00;47.31;101769.33;107196;1257;24243;-52
2024/01/27 07:27:40;;;;;;;6.10;5.40;;;;;;;8.96;47.40;101769.49;107168;1264;25405;-54
2024/01/27 07:30:11;;;;;;;5.60;5.00;;;;;;;8.90;47.34;101770.52;106859;1267;25318;-54
2024/01/27 07:32:38;;;;;;;5.30;4.80;;;;;;;8.87;47.50;101771.73;107184;1256;25366;-54
2024/01/27 07:35:09;;;;;;;5.00;4.50;;;;;;;8.88;47.47;101775.20;106219;1263;1003547;-53
2024/01/27 07:37:36;;;;;;;6.60;4.80;;;;;;;8.89;47.43;101776.59;107087;1256;25746;-53
2024/01/27 07:40:05;;;;;;;7.40;5.30;;;;;;;8.94;47.64;101780.57;107072;1263;24235;-54
2024/01/27 07:42:32;;;;;;;5.60;4.80;;;;;;;9.04;47.70;101780.06;106846;1256;22770;-53
2024/01/27 07:44:59;;;;;;;6.80;5.30;;;;;;;9.09;47.27;101779.90;107086;1263;25481;-53
2024/01/27 07:47:27;;;;;;;7.20;5.10;;;;;;;9.11;47.07;101779.20;106988;1262;25331;-52
2024/01/27 07:49:54;;;;;;;5.80;4.50;;;;;;;9.12;47.01;101782.84;106468;1257;1003216;-53
2024/01/27 07:52:22;;;;;;;5.50;5.00;;;;;;;9.12;47.02;101780.59;107177;1258;25363;-53
2024/01/27 07:54:49;;;;;;;5.10;4.60;;;;;;;9.11;46.93;101778.16;107039;1258;25312;-53
2024/01/27 07:57:16;;;;;;;6.00;5.10;;;;;;;9.09;46.98;101783.87;107078;1264;25449;-54
2024/01/27 07:59:43;;;;;;;9.70;5.10;;;;;;;9.09;47.03;101790.96;107112;1265;25347;-54
2024/01/27 08:02:10;;;;;;;6.00;5.40;;;;;;;9.10;47.01;101791.66;107077;1256;22515;-53
2024/01/27 08:04:38;;;;;;;5.90;5.30;;;;;;;9.12;47.17;101785.94;106849;1271;25318;-53
2024/01/27 08:07:09;;;;;;;7.00;5.50;;;;;;;9.19;47.22;101791.66;106408;1257;1002987;-54
2024/01/27 08:09:37;;;;;;;7.30;5.70;;;;;;;9.26;47.10;101790.80;106891;1263;25308;-53
2024/01/27 08:12:06;;;;;;;7.20;5.80;;;;;;;9.31;46.95;101789.07;106361;1267;1002887;-54
2024/01/27 08:14:35;;;;;;;8.50;5.40;;;;;;;9.36;46.58;101790.10;106873;1260;24206;-53
2024/01/27 08:17:03;;;;;;;7.20;5.40;;;;;;;9.37;46.74;101789.59;106102;1264;1003511;-52
2024/01/27 08:19:30;;;;;;;6.20;5.40;;;;;;;9.41;46.77;101791.84;106812;1267;25353;-54
2024/01/27 08:21:58;;;;;;;6.00;5.00;;;;;;;9.45;46.61;101792.88;106888;1267;25321;-51
2024/01/27 08:24:26;;;;;;;6.60;5.30;;;;;;;9.50;46.69;101797.38;107189;1263;25515;-52
2024/01/27 08:26:53;;;;;;;6.10;5.00;;;;;;;9.55;46.41;101799.09;107091;1265;25356;-52
2024/01/27 08:29:20;;;;;;;5.60;4.40;;;;;;;9.56;46.11;101801.00;107081;1256;22521;-54
2024/01/27 08:31:47;;;;;;;5.90;4.90;;;;;;;9.51;45.92;101798.75;106965;1270;25469;-54
2024/01/27 08:34:14;;;;;;;4.80;4.20;;;;;;;9.47;46.14;101798.93;107131;1257;25321;-55
2024/01/27 08:36:42;;;;;;;4.60;4.20;;;;;;;9.43;46.01;101798.06;107285;1256;25481;-53
2024/01/27 08:39:11;;;;;;;5.10;4.60;;;;;;;9.39;46.22;101802.73;107232;1264;25324;-51
2024/01/27 08:41:39;;;;;;;5.40;4.60;;;;;;;9.34;46.33;101806.55;106996;1266;25318;-52
2024/01/27 08:44:05;;;;;;;4.70;4.20;;;;;;;9.31;46.42;101806.91;107184;1264;25414;-53
2024/01/27 08:46:33;;;;;;;4.70;4.10;;;;;;;9.27;46.44;101808.65;106376;1257;1003322;-52
2024/01/27 08:49:00;;;;;;;5.00;4.50;;;;;;;9.25;46.63;101812.63;107145;1263;25356;-54
2024/01/27 08:51:27;;;;;;;5.10;4.50;;;;;;;9.24;46.92;101812.10;107181;1260;22533;-53
2024/01/27 08:53:54;;;;;;;4.80;4.20;;;;;;;9.22;46.91;101814.35;107065;1263;23861;-53
2024/01/27 08:56:21;;;;;;;4.60;4.00;;;;;;;9.19;47.10;101814.01;106852;1258;23861;-52
2024/01/27 08:58:48;;;;;;;5.50;4.90;;;;;;;9.17;46.95;101812.44;106377;1264;1003626;-53
2024/01/27 09:01:19;;;;;;;4.90;4.40;;;;;;;9.11;46.64;101809.32;106932;1267;25356;-54
2024/01/27 09:03:46;;;;;;;5.60;4.50;;;;;;;9.03;46.73;101810.52;106345;1267;1003785;-53
2024/01/27 09:06:13;;;;;;;5.60;4.50;;;;;;;9.02;46.87;101808.27;107059;1260;25346;-53
2024/01/27 09:08:41;;;;;;;4.80;4.20;;;;;;;9.01;47.09;101799.95;107083;1257;25224;-54
2024/01/27 09:11:09;;;;;;;5.30;4.80;;;;;;;8.98;47.25;101795.27;107184;1257;22535;-54
2024/01/27 09:13:36;;;;;;;6.70;4.50;;;;;;;9.00;47.80;101800.13;107192;1265;25385;-54
2024/01/27 09:16:03;;;;;;;5.60;4.70;;;;;;;9.06;47.83;101803.42;107110;1267;22546;-54
2024/01/27 09:18:30;;;;;;;6.70;5.20;;;;;;;9.13;48.08;101802.21;107198;1256;25334;-53
2024/01/27 09:20:57;;;;;;;7.10;5.00;;;;;;;9.22;47.86;101802.23;106701;1272;25318;-54
2024/01/27 09:23:25;;;;;;;7.60;5.70;;;;;;;9.26;47.55;101802.23;106947;1264;22530;-52
2024/01/27 09:25:53;;;;;;;7.40;5.60;;;;;;;9.28;47.12;101800.67;107147;1266;22753;-52
2024/01/27 09:28:20;;;;;;;6.00;5.10;;;;;;;9.26;46.79;101804.31;107111;1269;25478;-52
2024/01/27 09:30:47;;;;;;;5.40;4.60;;;;;;;9.26;46.69;101802.76;107118;1266;25347;-51
2024/01/27 09:33:14;;;;;;;5.80;5.20;;;;;;;9.24;46.71;101806.23;106382;1264;1002870;-54
2024/01/27 09:35:41;;;;;;;7.30;5.20;;;;;;;9.21;46.80;101807.76;107089;1254;25468;-51
2024/01/27 09:38:11;;;;;;;6.10;5.40;;;;;;;9.18;46.66;101807.59;106837;1264;25321;-52
2024/01/27 09:40:38;;;;;;;6.90;5.40;;;;;;;9.13;46.93;101808.79;106879;1268;25341;-54
2024/01/27 09:43:06;;;;;;;7.50;5.50;;;;;;;9.10;47.06;101803.61;107331;1270;25340;-54
2024/01/27 09:45:33;;;;;;;6.10;4.80;;;;;;;9.09;47.05;101804.13;107154;1259;24388;-52
2024/01/27 09:48:00;;;;;;;6.10;4.90;;;;;;;9.05;46.73;101806.37;106762;1260;1003811;-52
2024/01/27 09:50:28;;;;;;;6.30;5.40;;;;;;;9.01;46.79;101807.92;107154;1273;25350;-52
2024/01/27 09:52:55;;;;;;;4.60;4.20;;;;;;;8.98;46.87;101808.61;107412;1266;22943;-52
2024/01/27 09:55:22;;;;;;;6.10;4.70;;;;;;;8.97;47.05;101804.10;106702;1263;1003901;-52
2024/01/27 09:57:49;;;;;;;5.30;4.70;;;;;;;8.95;47.22;101808.26;107212;1258;23861;-52
2024/01/27 10:00:16;;;;;;;5.00;4.50;;;;;;;8.94;47.42;101803.77;107271;1264;25337;-52
2024/01/27 10:02:46;;;;;;;6.70;4.90;;;;;;;8.93;47.48;101798.05;107389;1260;22569;-53
2024/01/27 10:05:13;;;;;;;6.60;5.20;;;;;;;8.91;47.68;101798.55;107138;1256;22534;-52
2024/01/27 10:07:40;;;;;;;5.00;4.50;;;;;;;8.91;47.71;101801.16;106243;1256;1003239;-54
2024/01/27 10:10:07;;;;;;;5.60;4.80;;;;;;;8.88;47.57;101798.91;107120;1273;25451;-53
2024/01/27 10:12:38;;;;;;;5.80;5.20;;;;;;;8.85;47.75;101797.52;107269;1258;25452;-52
2024/01/27 10:15:07;;;;;;;5.70;5.20;;;;;;;8.81;47.63;101792.84;106966;1267;25404;-52
2024/01/27 10:17:37;;;;;;;6.10;5.50;;;;;;;8.75;47.70;101790.21;107446;1266;25278;-53
2024/01/27 10:20:05;;;;;;;6.90;5.40;;;;;;;8.73;47.85;101792.47;107686;1260;24196;-53
2024/01/27 10:22:39;;;;;;;7.60;5.10;;;;;;;8.72;48.00;101792.46;106975;1269;25327;-52
2024/01/27 10:25:07;;;;;;;6.40;5.00;;;;;;;8.69;48.57;101797.65;106889;1270;25338;-53
2024/01/27 10:27:35;;;;;;;7.90;5.70;;;;;;;8.71;48.51;101798.52;106826;1262;25306;-53
2024/01/27 10:30:03;;;;;;;6.00;5.40;;;;;;;8.85;48.07;101795.95;106362;1260;1003047;-53
2024/01/27 10:32:30;;;;;;;5.50;4.50;;;;;;;8.91;47.70;101796.66;107157;1258;25392;-53
2024/01/27 10:35:05;;;;;;;6.10;4.90;;;;;;;8.94;47.88;101793.20;106961;1264;25328;-52
2024/01/27 10:37:32;;;;;;;6.80;5.40;;;;;;;8.97;47.88;101793.03;106841;1271;23905;-52
2024/01/27 10:40:07;;;;;;;5.50;5.00;;;;;;;9.00;47.74;101791.98;106968;1269;24217;-53
2024/01/27 10:42:37;;;;;;;6.00;4.80;;;;;;;9.01;47.57;101793.90;107064;1275;25334;-54
2024/01/27 10:45:05;;;;;;;6.10;5.50;;;;;;;9.02;47.61;101790.43;106822;1273;22519;-53
2024/01/27 10:47:33;;;;;;;7.00;5.80;;;;;;;9.04;47.62;101790.96;107009;1257;22527;-53
2024/01/27 10:50:00;;;;;;;5.60;5.00;;;;;;;9.05;47.52;101791.31;106551;1270;1003573;-52
2024/01/27 10:52:48;;;;;;;6.10;5.20;;;;;;;9.02;47.29;101789.58;107377;1267;25384;-51
2024/01/27 10:55:16;;;;;;;5.70;5.10;;;;;;;9.00;47.35;101790.61;106944;1260;24203;-52
2024/01/27 10:57:43;;;;;;;5.40;4.90;;;;;;;8.98;47.23;101790.09;106878;1271;25373;-52
2024/01/27 11:00:11;;;;;;;6.90;5.40;;;;;;;8.99;47.19;101793.38;107411;1268;25390;-52
2024/01/27 11:02:38;;;;;;;6.70;5.30;;;;;;;9.00;47.45;101793.56;107317;1256;25383;-52
2024/01/27 11:05:08;;;;;;;6.10;5.50;;;;;;;9.06;47.37;101794.44;106607;1256;1003332;-54
2024/01/27 11:07:36;;;;;;;6.90;5.80;;;;;;;9.10;47.51;101792.52;107484;1266;25379;-52
2024/01/27 11:10:03;;;;;;;6.00;5.40;;;;;;;9.12;47.43;101792.70;106730;1267;1003008;-54
2024/01/27 11:12:31;;;;;;;8.60;6.00;;;;;;;9.08;47.54;101793.39;107389;1265;25478;-53
2024/01/27 11:14:58;;;;;;;5.60;5.10;;;;;;;9.09;47.54;101793.73;107291;1263;25993;-52
2024/01/27 11:17:25;;;;;;;6.80;4.90;;;;;;;9.11;47.57;101794.25;107408;1258;22662;-52
2024/01/27 11:19:53;;;;;;;5.80;5.00;;;;;;;9.11;47.74;101793.56;107105;1256;24270;-53
2024/01/27 11:22:27;;;;;;;6.50;5.20;;;;;;;9.13;47.71;101795.47;107132;1256;25322;-53
2024/01/27 11:25:16;;;;;;;9.90;5.10;;;;;;;9.15;47.84;101798.41;106512;1267;1003450;-53